createdAt,value
2023-05-08T00:00:06.140Z,33.21
2023-05-08T00:01:06.139Z,33.21
2023-05-08T00:02:06.094Z,33.18
2023-05-08T00:03:06.210Z,33.22
2023-05-08T00:04:06.598Z,33.25
2023-05-08T00:05:06.189Z,33.20
2023-05-08T00:06:06.534Z,33.20
2023-05-08T00:07:06.140Z,33.20
2023-05-08T00:08:06.078Z,33.24
2023-05-08T00:09:06.098Z,33.22
2023-05-08T00:10:06.117Z,33.22
2023-05-08T00:11:06.108Z,33.23
2023-05-08T00:12:06.060Z,33.25
2023-05-08T00:13:06.120Z,33.27
2023-05-08T00:14:06.070Z,33.19
2023-05-08T00:15:06.068Z,33.20
2023-05-08T00:16:06.107Z,33.26
2023-05-08T00:17:06.189Z,33.24
2023-05-08T00:18:06.136Z,33.24
2023-05-08T00:19:06.074Z,33.24
2023-05-08T00:20:06.066Z,33.27
2023-05-08T00:21:06.062Z,33.21
2023-05-08T00:22:06.030Z,33.23
2023-05-08T00:23:06.059Z,33.24
2023-05-08T00:24:06.088Z,33.27
2023-05-08T00:25:06.031Z,33.28
2023-05-08T00:26:06.507Z,33.28
2023-05-08T00:27:06.043Z,33.23
2023-05-08T00:28:06.048Z,33.26
2023-05-08T00:29:06.910Z,33.22
2023-05-08T00:30:06.059Z,33.23
2023-05-08T00:31:06.091Z,33.29
2023-05-08T00:32:06.077Z,33.26
2023-05-08T00:33:06.076Z,33.26
2023-05-08T00:34:06.062Z,33.27
2023-05-08T00:35:06.045Z,33.28
2023-05-08T00:36:06.075Z,33.29
2023-05-08T00:37:06.046Z,33.26
2023-05-08T00:38:06.012Z,33.29
2023-05-08T00:39:06.041Z,33.25
2023-05-08T00:40:06.047Z,33.23
2023-05-08T00:41:06.474Z,33.23
2023-05-08T00:42:06.002Z,33.26
2023-05-08T00:43:06.052Z,33.23
2023-05-08T00:44:06.022Z,33.30
2023-05-08T00:45:06.021Z,33.23
2023-05-08T00:46:06.074Z,33.28
2023-05-08T00:47:06.021Z,33.25
2023-05-08T00:48:06.014Z,33.32
2023-05-08T00:49:06.031Z,33.26
2023-05-08T00:50:06.056Z,33.27
2023-05-08T00:51:07.041Z,33.25
2023-05-08T00:52:06.033Z,33.26
2023-05-08T00:53:06.033Z,33.28
2023-05-08T00:54:06.039Z,33.29
2023-05-08T00:55:06.032Z,33.25
2023-05-08T00:56:06.054Z,33.26
2023-05-08T00:57:06.061Z,33.24
2023-05-08T00:58:06.013Z,33.26
2023-05-08T00:59:06.043Z,33.29
2023-05-08T01:00:05.995Z,33.29
2023-05-08T01:01:06.072Z,33.29
2023-05-08T01:02:06.046Z,33.32
2023-05-08T01:03:06.033Z,33.30
2023-05-08T01:04:06.005Z,33.29
2023-05-08T01:05:06.002Z,33.32
2023-05-08T01:06:06.008Z,33.29
2023-05-08T01:07:06.011Z,33.27
2023-05-08T01:08:06.022Z,33.30
2023-05-08T01:09:06.029Z,33.30
2023-05-08T01:10:06.047Z,33.30
2023-05-08T01:11:06.009Z,33.33
2023-05-08T01:12:06.024Z,33.30
2023-05-08T01:13:06.091Z,33.33
2023-05-08T01:14:06.019Z,33.27
2023-05-08T01:15:06.045Z,33.26
2023-05-08T01:16:06.087Z,33.27
2023-05-08T01:17:06.001Z,33.31
2023-05-08T01:18:06.004Z,33.30
2023-05-08T01:19:05.979Z,33.31
2023-05-08T01:20:05.991Z,33.33
2023-05-08T01:21:05.978Z,33.30
2023-05-08T01:22:06.011Z,33.36
2023-05-08T01:23:06.016Z,33.33
2023-05-08T01:24:05.982Z,33.31
2023-05-08T01:25:06.019Z,33.30
2023-05-08T01:26:06.002Z,33.33
2023-05-08T01:27:06.011Z,33.33
2023-05-08T01:28:05.981Z,33.34
2023-05-08T01:29:05.976Z,33.34
2023-05-08T01:30:06.002Z,33.31
2023-05-08T01:31:06.019Z,33.34
2023-05-08T01:32:06.020Z,33.30
2023-05-08T01:33:06.130Z,33.30
2023-05-08T01:34:06.102Z,33.34
2023-05-08T01:35:06.013Z,33.33
2023-05-08T01:36:06.025Z,33.33
2023-05-08T01:37:06.575Z,33.37
2023-05-08T01:38:06.061Z,33.29
2023-05-08T01:39:06.042Z,33.35
2023-05-08T01:40:06.051Z,33.33
2023-05-08T01:41:06.082Z,33.30
2023-05-08T01:42:06.083Z,33.38
2023-05-08T01:43:06.079Z,33.35
2023-05-08T01:44:06.062Z,33.33
2023-05-08T01:45:06.061Z,33.35
2023-05-08T01:46:06.056Z,33.37
2023-05-08T01:47:06.655Z,33.34
2023-05-08T01:48:06.095Z,33.35
2023-05-08T01:49:06.076Z,33.37
2023-05-08T01:50:06.156Z,33.39
2023-05-08T01:51:06.092Z,33.33
2023-05-08T01:52:06.114Z,33.35
2023-05-08T01:53:06.075Z,33.33
2023-05-08T01:54:08.668Z,33.35
2023-05-08T01:55:06.103Z,33.38
2023-05-08T01:56:06.136Z,33.39
2023-05-08T01:57:06.080Z,33.38
2023-05-08T01:58:06.086Z,33.37
2023-05-08T01:59:06.091Z,33.39
2023-05-08T02:00:06.067Z,33.37
2023-05-08T02:01:06.161Z,33.36
2023-05-08T02:02:06.571Z,33.39
2023-05-08T02:03:06.136Z,33.37
2023-05-08T02:04:06.092Z,33.38
2023-05-08T02:05:06.050Z,33.38
2023-05-08T02:06:06.029Z,33.36
2023-05-08T02:07:06.039Z,33.38
2023-05-08T02:08:06.010Z,33.38
2023-05-08T02:09:06.023Z,33.41
2023-05-08T02:10:05.978Z,33.38
2023-05-08T02:11:06.116Z,33.38
2023-05-08T02:12:06.006Z,33.39
2023-05-08T02:13:06.046Z,33.38
2023-05-08T02:14:05.982Z,33.39
2023-05-08T02:15:06.031Z,33.38
2023-05-08T02:16:05.982Z,33.41
2023-05-08T02:17:05.999Z,33.39
2023-05-08T02:18:06.019Z,33.42
2023-05-08T02:19:05.962Z,33.39
2023-05-08T02:20:05.956Z,33.32
2023-05-08T02:21:05.947Z,33.38
2023-05-08T02:22:05.940Z,33.39
2023-05-08T02:23:05.922Z,33.43
2023-05-08T02:24:05.928Z,33.39
2023-05-08T02:25:05.923Z,33.42
2023-05-08T02:26:05.887Z,33.37
2023-05-08T02:27:05.901Z,33.40
2023-05-08T02:28:05.928Z,33.39
2023-05-08T02:29:05.878Z,33.36
2023-05-08T02:30:05.897Z,33.36
2023-05-08T02:31:05.863Z,33.45
2023-05-08T02:32:05.905Z,33.42
2023-05-08T02:33:05.894Z,33.44
2023-05-08T02:34:05.855Z,33.42
2023-05-08T02:35:05.824Z,33.38
2023-05-08T02:36:05.828Z,33.42
2023-05-08T02:37:05.828Z,33.43
2023-05-08T02:38:05.879Z,33.43
2023-05-08T02:39:05.834Z,33.43
2023-05-08T02:40:05.825Z,33.40
2023-05-08T02:41:05.799Z,33.46
2023-05-08T02:42:05.814Z,33.44
2023-05-08T02:43:05.804Z,33.42
2023-05-08T02:44:05.821Z,33.42
2023-05-08T02:45:05.798Z,33.40
2023-05-08T02:46:05.802Z,33.40
2023-05-08T02:47:07.175Z,33.43
2023-05-08T02:48:05.944Z,33.44
2023-05-08T02:49:05.739Z,33.43
2023-05-08T02:50:05.743Z,33.42
2023-05-08T02:51:05.758Z,33.36
2023-05-08T02:52:05.727Z,33.46
2023-05-08T02:53:05.709Z,33.41
2023-05-08T02:54:05.729Z,33.44
2023-05-08T02:55:05.723Z,33.47
2023-05-08T02:56:05.746Z,33.47
2023-05-08T02:57:05.689Z,33.49
2023-05-08T02:58:05.702Z,33.49
2023-05-08T02:59:05.701Z,33.43
2023-05-08T03:00:05.652Z,33.41
2023-05-08T03:01:05.733Z,33.47
2023-05-08T03:02:05.684Z,33.45
2023-05-08T03:03:05.745Z,33.40
2023-05-08T03:04:05.640Z,33.43
2023-05-08T03:05:05.656Z,33.47
2023-05-08T03:06:05.622Z,33.41
2023-05-08T03:07:05.662Z,33.49
2023-05-08T03:08:05.634Z,33.47
2023-05-08T03:09:05.625Z,33.50
2023-05-08T03:10:05.639Z,33.41
2023-05-08T03:11:05.619Z,33.47
2023-05-08T03:12:05.629Z,33.45
2023-05-08T03:13:05.647Z,33.43
2023-05-08T03:14:05.598Z,33.43
2023-05-08T03:15:05.621Z,33.47
2023-05-08T03:16:05.622Z,33.45
2023-05-08T03:17:05.575Z,33.45
2023-05-08T03:18:05.551Z,33.51
2023-05-08T03:19:05.538Z,33.47
2023-05-08T03:20:05.593Z,33.45
2023-05-08T03:21:05.553Z,33.47
2023-05-08T03:22:05.552Z,33.48
2023-05-08T03:23:05.560Z,33.51
2023-05-08T03:24:05.567Z,33.45
2023-05-08T03:25:05.526Z,33.47
2023-05-08T03:26:05.521Z,33.47
2023-05-08T03:27:05.511Z,33.45
2023-05-08T03:28:05.499Z,33.51
2023-05-08T03:29:05.484Z,33.52
2023-05-08T03:30:05.511Z,33.44
2023-05-08T03:31:05.591Z,33.51
2023-05-08T03:32:05.540Z,33.49
2023-05-08T03:33:05.659Z,33.50
2023-05-08T03:34:05.580Z,33.45
2023-05-08T03:35:05.553Z,33.46
2023-05-08T03:36:05.614Z,33.54
2023-05-08T03:37:06.048Z,33.51
2023-05-08T03:38:05.664Z,33.47
2023-05-08T03:39:05.645Z,33.49
2023-05-08T03:40:05.644Z,33.48
2023-05-08T03:41:05.685Z,33.50
2023-05-08T03:42:05.707Z,33.45
2023-05-08T03:43:05.690Z,33.54
2023-05-08T03:44:05.706Z,33.51
2023-05-08T03:45:05.707Z,33.46
2023-05-08T03:46:05.710Z,33.52
2023-05-08T03:47:05.865Z,33.49
2023-05-08T03:48:05.817Z,33.51
2023-05-08T03:49:05.764Z,33.47
2023-05-08T03:50:05.773Z,33.55
2023-05-08T03:51:05.809Z,33.55
2023-05-08T03:52:06.068Z,33.51
2023-05-08T03:53:05.824Z,33.49
2023-05-08T03:54:05.884Z,33.52
2023-05-08T03:55:05.918Z,33.52
2023-05-08T03:56:05.889Z,33.48
2023-05-08T03:57:05.895Z,33.49
2023-05-08T03:58:05.894Z,33.51
2023-05-08T03:59:05.938Z,33.51
2023-05-08T04:00:05.984Z,33.48
2023-05-08T04:01:05.958Z,33.55
2023-05-08T04:02:06.067Z,33.46
2023-05-08T04:03:06.056Z,33.52
2023-05-08T04:04:06.021Z,33.51
2023-05-08T04:05:06.004Z,33.52
2023-05-08T04:06:06.027Z,33.58
2023-05-08T04:07:06.047Z,33.49
2023-05-08T04:08:06.118Z,33.51
2023-05-08T04:09:06.079Z,33.53
2023-05-08T04:10:06.082Z,33.52
2023-05-08T04:11:06.114Z,33.52
2023-05-08T04:12:06.183Z,33.52
2023-05-08T04:13:06.292Z,33.55
2023-05-08T04:14:06.201Z,33.54
2023-05-08T04:15:06.225Z,33.55
2023-05-08T04:16:06.227Z,33.52
2023-05-08T04:17:06.291Z,33.54
2023-05-08T04:18:06.342Z,33.55
2023-05-08T04:19:06.314Z,33.55
2023-05-08T04:20:06.327Z,33.52
2023-05-08T04:21:06.383Z,33.51
2023-05-08T04:22:06.401Z,33.53
2023-05-08T04:23:06.502Z,33.52
2023-05-08T04:24:06.434Z,33.51
2023-05-08T04:25:06.437Z,33.54
2023-05-08T04:26:06.453Z,33.55
2023-05-08T04:27:06.488Z,33.52
2023-05-08T04:28:06.488Z,33.56
2023-05-08T04:29:06.500Z,33.53
2023-05-08T04:30:06.567Z,33.56
2023-05-08T04:31:06.544Z,33.51
2023-05-08T04:32:06.773Z,33.55
2023-05-08T04:33:06.611Z,33.58
2023-05-08T04:34:06.581Z,33.58
2023-05-08T04:35:06.639Z,33.54
2023-05-08T04:36:06.649Z,33.56
2023-05-08T04:37:06.652Z,33.59
2023-05-08T04:38:06.662Z,33.57
2023-05-08T04:39:06.663Z,33.57
2023-05-08T04:40:06.710Z,33.59
2023-05-08T04:41:06.747Z,33.55
2023-05-08T04:42:07.107Z,33.52
2023-05-08T04:43:06.732Z,33.58
2023-05-08T04:44:06.760Z,33.56
2023-05-08T04:45:06.790Z,33.57
2023-05-08T04:46:07.622Z,33.56
2023-05-08T04:47:06.826Z,33.57
2023-05-08T04:48:06.918Z,33.56
2023-05-08T04:49:06.889Z,33.62
2023-05-08T04:50:06.883Z,33.63
2023-05-08T04:51:06.933Z,33.60
2023-05-08T04:52:06.943Z,33.60
2023-05-08T04:53:06.991Z,33.56
2023-05-08T04:54:06.988Z,33.70
2023-05-08T04:55:07.007Z,33.97
2023-05-08T04:56:07.026Z,33.99
2023-05-08T04:57:07.083Z,34.14
2023-05-08T04:58:07.121Z,34.18
2023-05-08T04:59:07.115Z,34.37
2023-05-08T05:00:07.166Z,34.69
2023-05-08T05:01:07.237Z,34.45
2023-05-08T05:02:07.311Z,34.92
2023-05-08T05:03:07.415Z,35.13
2023-05-08T05:04:07.419Z,35.00
2023-05-08T05:05:07.336Z,34.81
2023-05-08T05:06:07.369Z,34.82
2023-05-08T05:07:07.611Z,35.91
2023-05-08T05:08:07.522Z,36.27
2023-05-08T05:09:07.444Z,36.10
2023-05-08T05:10:07.516Z,35.87
2023-05-08T05:11:07.534Z,36.09
2023-05-08T05:12:07.559Z,36.35
2023-05-08T05:13:07.749Z,35.60
2023-05-08T05:14:07.635Z,35.64
2023-05-08T05:15:07.651Z,35.98
2023-05-08T05:16:07.706Z,36.09
2023-05-08T05:17:07.764Z,36.14
2023-05-08T05:18:07.864Z,36.26
2023-05-08T05:19:07.797Z,36.53
2023-05-08T05:20:07.830Z,36.93
2023-05-08T05:21:07.897Z,40.07
2023-05-08T05:22:08.120Z,37.74
2023-05-08T05:23:07.929Z,38.38
2023-05-08T05:24:07.993Z,39.67
2023-05-08T05:25:08.059Z,37.94
2023-05-08T05:26:08.036Z,37.58
2023-05-08T05:27:08.076Z,39.74
2023-05-08T05:28:08.086Z,37.92
2023-05-08T05:29:08.143Z,39.12
2023-05-08T05:30:08.186Z,41.58
2023-05-08T05:31:08.213Z,39.53
2023-05-08T05:32:08.182Z,39.25
2023-05-08T05:33:08.213Z,39.29
2023-05-08T05:34:08.247Z,39.63
2023-05-08T05:35:08.237Z,39.15
2023-05-08T05:36:08.270Z,39.97
2023-05-08T05:37:08.276Z,39.60
2023-05-08T05:38:08.434Z,39.82
2023-05-08T05:39:08.342Z,39.92
2023-05-08T05:40:08.381Z,40.10
2023-05-08T05:41:08.406Z,40.01
2023-05-08T05:42:08.475Z,39.94
2023-05-08T05:43:08.516Z,40.69
2023-05-08T05:44:08.502Z,39.94
2023-05-08T05:45:08.482Z,40.07
2023-05-08T05:46:08.478Z,43.22
2023-05-08T05:47:08.691Z,42.08
2023-05-08T05:48:08.610Z,42.36
2023-05-08T05:49:08.606Z,42.72
2023-05-08T05:50:08.620Z,42.54
2023-05-08T05:51:08.638Z,41.85
2023-05-08T05:52:09.113Z,41.66
2023-05-08T05:53:08.773Z,43.77
2023-05-08T05:54:08.744Z,42.77
2023-05-08T05:55:08.741Z,41.87
2023-05-08T05:56:08.762Z,41.24
2023-05-08T05:57:08.804Z,40.82
2023-05-08T05:58:09.015Z,40.61
2023-05-08T05:59:08.858Z,40.42
2023-05-08T06:00:08.952Z,41.07
2023-05-08T06:01:08.921Z,42.54
2023-05-08T06:02:08.956Z,40.63
2023-05-08T06:03:09.139Z,40.58
2023-05-08T06:04:09.101Z,40.56
2023-05-08T06:05:08.981Z,40.49
2023-05-08T06:06:09.106Z,40.79
2023-05-08T06:07:09.071Z,40.37
2023-05-08T06:08:09.102Z,40.49
2023-05-08T06:09:09.145Z,40.78
2023-05-08T06:10:09.156Z,40.28
2023-05-08T06:11:09.174Z,40.54
2023-05-08T06:12:09.209Z,40.57
2023-05-08T06:13:09.324Z,40.37
2023-05-08T06:14:09.270Z,40.42
2023-05-08T06:15:09.309Z,40.44
2023-05-08T06:16:09.346Z,40.38
2023-05-08T06:17:09.432Z,40.50
2023-05-08T06:18:09.515Z,40.33
2023-05-08T06:19:09.470Z,40.39
2023-05-08T06:20:09.539Z,40.54
2023-05-08T06:21:09.545Z,40.47
2023-05-08T06:22:09.695Z,40.55
2023-05-08T06:23:09.739Z,40.39
2023-05-08T06:24:09.635Z,40.47
2023-05-08T06:25:09.857Z,40.42
2023-05-08T06:26:09.732Z,40.41
2023-05-08T06:27:09.796Z,40.50
2023-05-08T06:28:09.796Z,40.38
2023-05-08T06:29:09.871Z,40.37
2023-05-08T06:30:09.926Z,40.59
2023-05-08T06:31:09.971Z,40.94
2023-05-08T06:32:10.143Z,40.46
2023-05-08T06:33:10.058Z,40.42
2023-05-08T06:34:10.038Z,40.31
2023-05-08T06:35:10.264Z,40.41
2023-05-08T06:36:10.120Z,40.32
2023-05-08T06:37:10.662Z,40.32
2023-05-08T06:38:10.215Z,40.39
2023-05-08T06:39:10.283Z,40.29
2023-05-08T06:40:17.309Z,40.65
2023-05-08T06:41:10.254Z,40.35
2023-05-08T06:42:10.301Z,40.33
2023-05-08T06:43:10.655Z,40.51
2023-05-08T06:44:10.239Z,40.79
2023-05-08T06:45:10.469Z,40.35
2023-05-08T06:46:10.240Z,40.65
2023-05-08T06:47:10.244Z,40.56
2023-05-08T06:48:10.681Z,40.47
2023-05-08T06:49:10.213Z,40.53
2023-05-08T06:50:10.204Z,40.98
2023-05-08T06:51:10.214Z,40.43
2023-05-08T06:52:10.202Z,41.71
2023-05-08T06:53:10.691Z,42.58
2023-05-08T06:54:10.315Z,41.21
2023-05-08T06:55:10.179Z,41.23
2023-05-08T06:56:10.169Z,42.77
2023-05-08T06:57:11.104Z,40.85
2023-05-08T06:58:10.650Z,40.83
2023-05-08T06:59:10.151Z,41.26
2023-05-08T07:00:10.235Z,41.17
2023-05-08T07:01:10.229Z,41.03
2023-05-08T07:02:10.337Z,41.60
2023-05-08T07:03:10.690Z,42.22
2023-05-08T07:04:10.295Z,42.14
2023-05-08T07:05:10.439Z,42.36
2023-05-08T07:06:10.207Z,42.48
2023-05-08T07:07:10.201Z,42.83
2023-05-08T07:08:10.219Z,42.76
2023-05-08T07:09:10.254Z,42.52
2023-05-08T07:10:10.321Z,42.96
2023-05-08T07:11:10.406Z,42.93
2023-05-08T07:12:10.454Z,42.87
2023-05-08T07:13:10.567Z,43.10
2023-05-08T07:14:10.534Z,43.08
2023-05-08T07:15:21.834Z,43.05
2023-05-08T07:16:11.590Z,43.01
2023-05-08T07:17:10.598Z,43.25
2023-05-08T07:18:10.664Z,43.16
2023-05-08T07:19:10.572Z,43.33
2023-05-08T07:20:10.542Z,43.11
2023-05-08T07:21:10.566Z,43.26
2023-05-08T07:22:10.557Z,43.55
2023-05-08T07:23:10.655Z,43.48
2023-05-08T07:24:10.525Z,43.47
2023-05-08T07:25:10.709Z,43.48
2023-05-08T07:26:10.522Z,43.58
2023-05-08T07:27:10.519Z,43.53
2023-05-08T07:28:10.487Z,43.51
2023-05-08T07:29:10.623Z,43.38
2023-05-08T07:30:10.549Z,43.57
2023-05-08T07:31:10.628Z,43.42
2023-05-08T07:32:10.568Z,43.77
2023-05-08T07:33:10.588Z,43.67
2023-05-08T07:34:10.600Z,43.72
2023-05-08T07:35:11.306Z,43.68
2023-05-08T07:36:10.611Z,44.12
2023-05-08T07:37:10.633Z,43.64
2023-05-08T07:38:10.624Z,43.58
2023-05-08T07:39:10.628Z,43.44
2023-05-08T07:40:10.636Z,43.51
2023-05-08T07:41:10.639Z,43.46
2023-05-08T07:42:10.763Z,43.51
2023-05-08T07:43:10.631Z,43.48
2023-05-08T07:44:10.652Z,43.48
2023-05-08T07:45:10.940Z,43.40
2023-05-08T07:46:10.668Z,43.48
2023-05-08T07:47:10.724Z,43.31
2023-05-08T07:48:10.734Z,44.00
2023-05-08T07:49:10.728Z,43.95
2023-05-08T07:50:10.664Z,43.90
2023-05-08T07:51:10.740Z,44.24
2023-05-08T07:52:10.707Z,44.08
2023-05-08T07:53:10.710Z,44.30
2023-05-08T07:54:10.728Z,43.59
2023-05-08T07:55:10.831Z,43.50
2023-05-08T07:56:10.718Z,44.30
2023-05-08T07:57:10.721Z,43.49
2023-05-08T07:58:10.806Z,43.27
2023-05-08T07:59:10.761Z,42.97
2023-05-08T08:00:10.763Z,42.69
2023-05-08T08:01:10.777Z,42.67
2023-05-08T08:02:10.850Z,42.54
2023-05-08T08:03:10.943Z,42.63
2023-05-08T08:04:12.258Z,42.63
2023-05-08T08:05:11.377Z,42.39
2023-05-08T08:06:11.069Z,42.50
2023-05-08T08:07:11.051Z,42.25
2023-05-08T08:08:11.100Z,42.09
2023-05-08T08:09:11.096Z,42.05
2023-05-08T08:10:11.044Z,43.39
2023-05-08T08:11:11.061Z,43.63
2023-05-08T08:12:11.152Z,43.16
2023-05-08T08:13:11.183Z,43.38
2023-05-08T08:14:11.166Z,44.14
2023-05-08T08:15:11.459Z,43.43
2023-05-08T08:16:11.169Z,42.75
2023-05-08T08:17:11.287Z,43.12
2023-05-08T08:18:11.280Z,43.00
2023-05-08T08:19:11.122Z,42.63
2023-05-08T08:20:11.108Z,43.21
2023-05-08T08:21:11.108Z,42.87
2023-05-08T08:22:11.124Z,42.42
2023-05-08T08:23:11.206Z,45.28
2023-05-08T08:24:11.115Z,44.05
2023-05-08T08:25:11.271Z,43.96
2023-05-08T08:26:11.110Z,43.25
2023-05-08T08:27:11.115Z,43.87
2023-05-08T08:28:11.112Z,43.89
2023-05-08T08:29:11.161Z,43.75
2023-05-08T08:30:17.561Z,43.45
2023-05-08T08:31:12.222Z,43.29
2023-05-08T08:32:11.182Z,42.48
2023-05-08T08:33:11.196Z,42.27
2023-05-08T08:34:11.171Z,42.24
2023-05-08T08:35:11.412Z,43.99
2023-05-08T08:36:11.168Z,44.98
2023-05-08T08:37:12.678Z,44.22
2023-05-08T08:38:11.220Z,44.48
2023-05-08T08:39:12.984Z,42.95
2023-05-08T08:40:11.094Z,42.61
2023-05-08T08:41:11.087Z,42.73
2023-05-08T08:42:11.127Z,43.44
2023-05-08T08:43:11.073Z,43.33
2023-05-08T08:44:11.100Z,43.28
2023-05-08T08:45:11.374Z,43.24
2023-05-08T08:46:11.297Z,43.90
2023-05-08T08:47:11.086Z,43.86
2023-05-08T08:48:11.248Z,44.52
2023-05-08T08:49:11.059Z,43.53
2023-05-08T08:50:14.222Z,43.83
2023-05-08T08:51:11.031Z,43.80
2023-05-08T08:52:11.025Z,44.13
2023-05-08T08:53:11.058Z,43.80
2023-05-08T08:54:11.021Z,43.14
2023-05-08T08:55:11.123Z,43.09
2023-05-08T08:56:11.019Z,43.30
2023-05-08T08:57:11.024Z,43.55
2023-05-08T08:58:10.995Z,42.95
2023-05-08T08:59:11.016Z,42.69
2023-05-08T09:00:11.017Z,43.37
2023-05-08T09:01:10.973Z,43.33
2023-05-08T09:02:11.196Z,42.69
2023-05-08T09:03:11.288Z,43.08
2023-05-08T09:04:11.068Z,42.80
2023-05-08T09:05:11.157Z,42.72
2023-05-08T09:06:10.937Z,42.16
2023-05-08T09:07:10.947Z,43.30
2023-05-08T09:08:11.238Z,43.16
2023-05-08T09:09:10.953Z,42.88
2023-05-08T09:10:10.956Z,42.55
2023-05-08T09:11:11.022Z,43.03
2023-05-08T09:12:10.928Z,43.38
2023-05-08T09:13:12.060Z,43.46
2023-05-08T09:14:10.921Z,43.19
2023-05-08T09:15:11.032Z,43.42
2023-05-08T09:16:10.998Z,42.96
2023-05-08T09:17:10.910Z,43.57
2023-05-08T09:18:11.096Z,44.46
2023-05-08T09:19:10.910Z,44.17
2023-05-08T09:20:11.294Z,43.25
2023-05-08T09:21:10.885Z,43.59
2023-05-08T09:22:10.880Z,45.28
2023-05-08T09:23:10.906Z,44.74
2023-05-08T09:24:10.865Z,45.68
2023-05-08T09:25:10.934Z,45.53
2023-05-08T09:26:10.886Z,45.44
2023-05-08T09:27:10.920Z,43.48
2023-05-08T09:28:11.206Z,43.38
2023-05-08T09:29:11.035Z,42.93
2023-05-08T09:30:11.070Z,42.76
2023-05-08T09:31:11.197Z,42.68
2023-05-08T09:32:11.249Z,43.44
2023-05-08T09:33:11.293Z,43.57
2023-05-08T09:34:11.500Z,43.19
2023-05-08T09:35:11.602Z,42.94
2023-05-08T09:36:11.451Z,42.55
2023-05-08T09:37:11.500Z,43.89
2023-05-08T09:38:11.747Z,43.21
2023-05-08T09:39:11.620Z,42.50
2023-05-08T09:40:11.688Z,42.39
2023-05-08T09:41:11.793Z,42.56
2023-05-08T09:42:11.807Z,42.33
2023-05-08T09:43:12.191Z,42.50
2023-05-08T09:44:11.902Z,42.23
2023-05-08T09:45:12.230Z,42.31
2023-05-08T09:46:12.063Z,45.33
2023-05-08T09:47:12.071Z,42.69
2023-05-08T09:48:12.192Z,42.39
2023-05-08T09:49:12.722Z,43.35
2023-05-08T09:50:12.717Z,42.89
2023-05-08T09:51:12.257Z,42.42
2023-05-08T09:52:12.313Z,42.18
2023-05-08T09:53:12.694Z,42.13
2023-05-08T09:54:12.427Z,41.99
2023-05-08T09:55:12.471Z,41.88
2023-05-08T09:56:12.555Z,41.87
2023-05-08T09:57:12.594Z,41.80
2023-05-08T09:58:12.693Z,41.77
2023-05-08T09:59:12.681Z,41.72
2023-05-08T10:00:13.262Z,41.68
2023-05-08T10:01:12.882Z,41.69
2023-05-08T10:02:12.948Z,41.72
2023-05-08T10:03:13.042Z,41.68
2023-05-08T10:04:13.082Z,41.69
2023-05-08T10:05:13.842Z,41.67
2023-05-08T10:06:13.288Z,41.67
2023-05-08T10:07:13.129Z,41.64
2023-05-08T10:08:13.136Z,41.65
2023-05-08T10:09:13.172Z,41.69
2023-05-08T10:10:13.271Z,41.63
2023-05-08T10:11:13.157Z,41.68
2023-05-08T10:12:13.123Z,41.69
2023-05-08T10:13:13.143Z,41.64
2023-05-08T10:14:13.131Z,41.65
2023-05-08T10:15:13.129Z,41.63
2023-05-08T10:16:13.154Z,41.63
2023-05-08T10:17:13.241Z,41.64
2023-05-08T10:18:13.177Z,41.64
2023-05-08T10:19:13.094Z,41.67
2023-05-08T10:20:13.200Z,41.63
2023-05-08T10:21:13.127Z,41.65
2023-05-08T10:22:13.208Z,41.64
2023-05-08T10:23:13.126Z,41.62
2023-05-08T10:24:13.124Z,41.59
2023-05-08T10:25:13.214Z,41.54
2023-05-08T10:26:13.079Z,41.57
2023-05-08T10:27:13.125Z,41.64
2023-05-08T10:28:13.077Z,41.60
2023-05-08T10:29:13.090Z,41.88
2023-05-08T10:30:13.272Z,42.43
2023-05-08T10:31:13.216Z,41.76
2023-05-08T10:32:13.112Z,41.69
2023-05-08T10:33:13.272Z,41.66
2023-05-08T10:34:13.110Z,41.59
2023-05-08T10:35:13.131Z,41.61
2023-05-08T10:36:13.070Z,41.57
2023-05-08T10:37:13.110Z,41.52
2023-05-08T10:38:13.343Z,41.55
2023-05-08T10:39:13.081Z,41.54
2023-05-08T10:40:13.212Z,41.50
2023-05-08T10:41:13.122Z,41.63
2023-05-08T10:42:13.119Z,42.28
2023-05-08T10:43:13.124Z,41.90
2023-05-08T10:44:13.108Z,41.77
2023-05-08T10:45:13.192Z,41.77
2023-05-08T10:46:13.167Z,41.67
2023-05-08T10:47:13.194Z,41.62
2023-05-08T10:48:13.284Z,41.60
2023-05-08T10:49:13.193Z,41.59
2023-05-08T10:50:13.409Z,41.55
2023-05-08T10:51:13.180Z,41.56
2023-05-08T10:52:13.192Z,41.43
2023-05-08T10:53:13.240Z,41.51
2023-05-08T10:54:13.198Z,41.47
2023-05-08T10:55:13.228Z,41.40
2023-05-08T10:56:13.221Z,41.37
2023-05-08T10:57:13.235Z,41.31
2023-05-08T10:58:13.236Z,41.33
2023-05-08T10:59:13.210Z,41.29
2023-05-08T11:00:13.342Z,41.27
2023-05-08T11:01:13.277Z,41.18
2023-05-08T11:02:13.256Z,41.16
2023-05-08T11:03:27.354Z,41.14
2023-05-08T11:04:14.317Z,41.13
2023-05-08T11:05:13.209Z,41.08
2023-05-08T11:06:13.206Z,41.08
2023-05-08T11:07:13.226Z,41.01
2023-05-08T11:08:13.217Z,41.00
2023-05-08T11:09:13.167Z,40.99
2023-05-08T11:10:13.444Z,40.93
2023-05-08T11:11:13.214Z,40.92
2023-05-08T11:12:13.171Z,40.89
2023-05-08T11:13:13.286Z,40.88
2023-05-08T11:14:13.143Z,40.84
2023-05-08T11:15:13.174Z,40.81
2023-05-08T11:16:13.184Z,40.78
2023-05-08T11:17:13.169Z,40.78
2023-05-08T11:18:13.171Z,40.75
2023-05-08T11:19:13.142Z,40.69
2023-05-08T11:20:13.428Z,40.64
2023-05-08T11:21:13.135Z,40.60
2023-05-08T11:22:13.136Z,40.57
2023-05-08T11:23:13.138Z,40.60
2023-05-08T11:24:13.108Z,40.49
2023-05-08T11:25:13.085Z,40.56
2023-05-08T11:26:13.103Z,40.48
2023-05-08T11:27:13.130Z,40.49
2023-05-08T11:28:13.142Z,40.44
2023-05-08T11:29:13.190Z,40.36
2023-05-08T11:30:13.295Z,40.37
2023-05-08T11:31:13.317Z,40.32
2023-05-08T11:32:13.283Z,40.30
2023-05-08T11:33:13.318Z,40.32
2023-05-08T11:34:13.717Z,40.24
2023-05-08T11:35:13.350Z,40.20
2023-05-08T11:36:13.401Z,40.23
2023-05-08T11:37:14.159Z,40.23
2023-05-08T11:38:13.485Z,40.26
2023-05-08T11:39:13.803Z,40.26
2023-05-08T11:40:13.803Z,40.21
2023-05-08T11:41:13.570Z,40.18
2023-05-08T11:42:13.645Z,40.18
2023-05-08T11:43:13.649Z,40.18
2023-05-08T11:44:14.822Z,40.13
2023-05-08T11:45:13.748Z,40.13
2023-05-08T11:46:13.772Z,40.10
2023-05-08T11:47:13.991Z,40.10
2023-05-08T11:48:13.890Z,40.11
2023-05-08T11:49:13.899Z,40.14
2023-05-08T11:50:14.465Z,40.09
2023-05-08T11:51:14.030Z,40.07
2023-05-08T11:52:14.050Z,40.07
2023-05-08T11:53:14.098Z,40.09
2023-05-08T11:54:14.176Z,40.04
2023-05-08T11:55:14.224Z,40.08
2023-05-08T11:56:14.262Z,40.05
2023-05-08T11:57:14.306Z,40.04
2023-05-08T11:58:14.332Z,40.07
2023-05-08T11:59:14.478Z,40.03
2023-05-08T12:00:14.836Z,40.05
2023-05-08T12:01:14.514Z,40.08
2023-05-08T12:02:14.562Z,40.01
2023-05-08T12:03:14.693Z,39.98
2023-05-08T12:04:14.736Z,40.02
2023-05-08T12:05:14.757Z,40.00
2023-05-08T12:06:14.744Z,39.98
2023-05-08T12:07:14.770Z,39.95
2023-05-08T12:08:15.734Z,39.93
2023-05-08T12:09:14.933Z,39.93
2023-05-08T12:10:15.485Z,39.85
2023-05-08T12:11:14.994Z,39.84
2023-05-08T12:12:15.050Z,39.79
2023-05-08T12:13:15.144Z,39.77
2023-05-08T12:14:15.151Z,39.74
2023-05-08T12:15:15.364Z,39.62
2023-05-08T12:16:15.278Z,39.74
2023-05-08T12:17:15.399Z,39.73
2023-05-08T12:18:15.436Z,39.77
2023-05-08T12:19:15.435Z,39.73
2023-05-08T12:20:15.966Z,39.71
2023-05-08T12:21:15.537Z,39.63
2023-05-08T12:22:15.639Z,39.67
2023-05-08T12:23:15.682Z,39.69
2023-05-08T12:24:15.747Z,39.65
2023-05-08T12:25:16.096Z,39.70
2023-05-08T12:26:15.880Z,39.68
2023-05-08T12:27:15.913Z,39.62
2023-05-08T12:28:15.977Z,39.57
2023-05-08T12:29:16.064Z,39.60
2023-05-08T12:30:16.852Z,39.61
2023-05-08T12:31:16.258Z,39.54
2023-05-08T12:32:16.253Z,39.58
2023-05-08T12:33:16.362Z,39.58
2023-05-08T12:34:16.366Z,39.61
2023-05-08T12:35:16.481Z,39.56
2023-05-08T12:36:16.517Z,39.53
2023-05-08T12:37:16.564Z,39.49
2023-05-08T12:38:16.642Z,39.50
2023-05-08T12:39:16.729Z,39.48
2023-05-08T12:40:16.753Z,39.50
2023-05-08T12:41:16.800Z,39.41
2023-05-08T12:42:16.867Z,39.40
2023-05-08T12:43:16.973Z,39.45
2023-05-08T12:44:17.008Z,39.40
2023-05-08T12:45:17.037Z,39.41
2023-05-08T12:46:17.224Z,39.35
2023-05-08T12:47:17.171Z,39.35
2023-05-08T12:48:17.265Z,39.35
2023-05-08T12:49:17.680Z,39.29
2023-05-08T12:50:17.372Z,39.31
2023-05-08T12:51:17.455Z,39.31
2023-05-08T12:52:17.499Z,39.25